Terminal Aerodrome Forecast
Issued by NWS Des Moines, IA

Home | Current Version | Previous Version | Text Only | Print | Product List | Glossary On
Versions: 1 2 3 4 5 6 7 8 9 10 11 12 13 14 15 16 17 18 19 20 21 22 23 24 25 26 27 28 29 30 31 32 33 34
000
FTUS43 KDMX 280520
TAFDSM
TAF
KDSM 280520Z 2806/2906 30005KT P6SM FEW080 SCT140
     FM280800 33006KT P6SM BKN080 BKN140
     FM281300 35010G16KT P6SM BKN025
     FM281700 35011G18KT P6SM SCT025 BKN035=

USA.gov is the U.S. government's official web portal to all federal, state and local government web resources and services.